Time;durP1;ratioP1;P1;durP2;ratioP2;P2;SDS_P1;SDS_P2;PMS_P1;PMS_P2;Temp;Humidity;BMP_temperature;BMP_pressure;BME280_temperature;BME280_humidity;BME280_pressure;Samples;Min_cycle;Max_cycle;Signal;HPM_P1;HPM_P2
2024/03/17 00:02:20;;;;;;;2.97;2.50;;;;;;;21.15;39.33;102419.16;5040880;28;20052;-67
2024/03/17 00:04:46;;;;;;;2.22;2.00;;;;;;;21.19;39.37;102422.34;5031672;28;20020;-67
2024/03/17 00:07:12;;;;;;;3.10;2.53;;;;;;;21.14;39.44;102422.78;5022045;28;20924;-67
2024/03/17 00:09:39;;;;;;;4.72;2.85;;;;;;;21.15;39.33;102423.63;5020492;28;20159;-67
2024/03/17 00:12:05;;;;;;;2.40;2.20;;;;;;;21.16;39.09;102428.75;5021605;28;20041;-67
2024/03/17 00:14:31;;;;;;;2.90;2.22;;;;;;;21.09;39.35;102425.88;5033993;28;20037;-67
2024/03/17 00:16:57;;;;;;;4.47;2.20;;;;;;;21.03;39.25;102417.72;5035839;28;20055;-67
2024/03/17 00:19:26;;;;;;;3.20;2.17;;;;;;;21.10;39.43;102424.91;5049669;28;20056;-67
2024/03/17 00:21:51;;;;;;;3.00;2.25;;;;;;;21.07;39.69;102422.56;5024751;28;20048;-67
2024/03/17 00:24:17;;;;;;;2.20;2.00;;;;;;;21.09;39.31;102425.06;5022405;28;20048;-67
2024/03/17 00:26:42;;;;;;;3.22;2.20;;;;;;;21.06;39.34;102422.72;5024085;28;20033;-68
2024/03/17 00:29:08;;;;;;;3.05;2.10;;;;;;;20.98;39.63;102418.13;5019878;28;20110;-66
2024/03/17 00:31:34;;;;;;;3.88;2.45;;;;;;;21.00;39.34;102420.63;5020969;28;20049;-67
2024/03/17 00:33:59;;;;;;;3.17;2.25;;;;;;;20.97;39.28;102402.41;5020613;28;20037;-66
2024/03/17 00:36:25;;;;;;;2.78;2.05;;;;;;;20.99;39.50;102417.16;5023206;28;20056;-66
2024/03/17 00:38:52;;;;;;;2.75;2.03;;;;;;;20.98;39.51;102415.50;5043304;28;20025;-66
2024/03/17 00:41:19;;;;;;;2.08;1.88;;;;;;;20.90;39.57;102411.94;5043970;28;20440;-66
2024/03/17 00:43:44;;;;;;;2.70;2.20;;;;;;;20.96;39.53;102414.81;5042183;28;20452;-66
2024/03/17 00:46:10;;;;;;;2.92;2.00;;;;;;;20.96;39.39;102417.47;5043909;28;20030;-66
2024/03/17 00:48:35;;;;;;;2.80;2.20;;;;;;;20.94;39.29;102413.28;5046870;28;20033;-66
2024/03/17 00:51:01;;;;;;;2.92;2.00;;;;;;;20.93;39.43;102404.53;5040422;28;20642;-68
2024/03/17 00:53:28;;;;;;;3.20;2.25;;;;;;;20.93;39.33;102401.88;5037314;28;20135;-67
2024/03/17 00:56:01;;;;;;;4.03;2.22;;;;;;;20.90;39.29;102399.53;5041832;28;20044;-66
2024/03/17 00:58:27;;;;;;;2.70;2.05;;;;;;;20.92;39.41;102394.06;5043710;28;20040;-67
2024/03/17 01:00:52;;;;;;;2.75;2.08;;;;;;;20.92;39.50;102400.22;5040303;28;20501;-66
2024/03/17 01:03:19;;;;;;;3.03;2.10;;;;;;;20.86;39.44;102398.16;5038571;28;20731;-66
2024/03/17 01:05:47;;;;;;;2.17;1.95;;;;;;;20.72;39.70;102377.47;5047392;28;20119;-66
2024/03/17 01:08:15;;;;;;;2.63;2.00;;;;;;;20.84;39.54;102386.06;5039000;28;20182;-66
2024/03/17 01:10:41;;;;;;;2.58;2.05;;;;;;;20.81;39.57;102390.66;5037513;28;20057;-66
2024/03/17 01:13:08;;;;;;;3.28;1.98;;;;;;;20.79;39.61;102391.78;5034043;28;20187;-66
2024/03/17 01:15:35;;;;;;;2.28;2.08;;;;;;;20.85;39.23;102390.38;5040020;28;20037;-66
2024/03/17 01:18:00;;;;;;;3.28;2.10;;;;;;;20.77;39.46;102397.22;5036208;28;20041;-66
2024/03/17 01:20:26;;;;;;;2.53;2.20;;;;;;;20.76;39.56;102386.78;5033336;28;20045;-66
2024/03/17 01:22:52;;;;;;;3.75;2.20;;;;;;;20.69;39.72;102398.97;5039804;28;20743;-66
2024/03/17 01:25:18;;;;;;;2.75;2.08;;;;;;;20.67;39.65;102385.03;5041955;28;20049;-66
2024/03/17 01:27:43;;;;;;;3.42;2.38;;;;;;;20.64;39.51;102377.38;5040910;28;20037;-66
2024/03/17 01:30:10;;;;;;;2.20;2.00;;;;;;;20.74;39.31;102394.88;5037436;28;20037;-66
2024/03/17 01:32:36;;;;;;;4.05;2.47;;;;;;;20.73;39.37;102384.44;5042683;28;20108;-66
2024/03/17 01:35:01;;;;;;;3.22;2.10;;;;;;;20.69;39.61;102389.19;5035732;28;20707;-66
2024/03/17 01:37:31;;;;;;;3.08;2.15;;;;;;;20.68;39.67;102384.06;5031001;28;20382;-65
2024/03/17 01:40:00;;;;;;;3.33;2.13;;;;;;;20.67;39.40;102380.59;5035931;28;20381;-66
2024/03/17 01:42:25;;;;;;;3.78;2.72;;;;;;;20.66;39.54;102381.56;5039242;28;20465;-65
2024/03/17 01:44:51;;;;;;;4.45;2.45;;;;;;;20.66;39.43;102372.78;5042373;28;20094;-66
2024/03/17 01:47:20;;;;;;;2.80;2.10;;;;;;;20.62;39.53;102374.03;5045016;28;20034;-66
2024/03/17 01:49:49;;;;;;;3.33;2.27;;;;;;;20.64;39.34;102378.19;5039459;28;20052;-66
2024/03/17 01:52:16;;;;;;;3.42;2.22;;;;;;;20.46;39.54;102369.38;5042978;28;20524;-66
2024/03/17 01:54:43;;;;;;;3.78;2.28;;;;;;;20.63;39.48;102378.34;5040410;28;20048;-66
2024/03/17 01:57:08;;;;;;;2.35;1.80;;;;;;;20.58;39.74;102376.16;5044379;28;20040;-65
2024/03/17 01:59:34;;;;;;;3.08;2.10;;;;;;;20.57;39.63;102374.50;5035153;28;20045;-65
2024/03/17 02:02:00;;;;;;;2.58;1.98;;;;;;;20.58;39.63;102372.69;5041012;28;20040;-66
2024/03/17 02:04:26;;;;;;;2.90;2.30;;;;;;;20.57;39.52;102373.66;5044125;28;20040;-66
2024/03/17 02:06:51;;;;;;;3.25;2.40;;;;;;;20.50;39.68;102368.13;5044622;28;20025;-66
2024/03/17 02:09:18;;;;;;;3.55;2.30;;;;;;;20.52;39.52;102368.81;5035919;28;20049;-66
2024/03/17 02:11:44;;;;;;;2.95;2.10;;;;;;;20.58;39.47;102372.69;5042843;28;20068;-66
2024/03/17 02:14:10;;;;;;;2.83;2.20;;;;;;;20.56;39.53;102369.34;5043366;28;20071;-66
2024/03/17 02:16:36;;;;;;;3.55;2.10;;;;;;;20.47;39.64;102363.97;5039209;28;20061;-66
2024/03/17 02:19:01;;;;;;;2.33;2.05;;;;;;;20.47;39.74;102358.69;5042092;28;20213;-67
2024/03/17 02:21:27;;;;;;;2.45;2.20;;;;;;;20.50;39.60;102365.47;5036021;28;20049;-67
2024/03/17 02:23:54;;;;;;;3.30;2.72;;;;;;;20.46;39.56;102361.44;5044014;28;20048;-67
2024/03/17 02:26:19;;;;;;;2.78;2.20;;;;;;;20.46;39.69;102359.63;5047456;28;20051;-68
2024/03/17 02:28:47;;;;;;;2.80;2.20;;;;;;;20.50;39.49;102366.31;5039858;28;20386;-68
2024/03/17 02:31:15;;;;;;;2.65;1.70;;;;;;;20.44;39.40;102372.19;5044439;28;20056;-67
2024/03/17 02:33:41;;;;;;;2.55;1.83;;;;;;;20.41;39.66;102364.53;5038592;28;20033;-67
2024/03/17 02:36:09;;;;;;;2.78;2.17;;;;;;;20.42;39.45;102354.78;5047170;28;20063;-67
2024/03/17 02:41:20;;;;;;;2.78;2.00;;;;;;;20.43;39.32;102351.16;5039025;28;20629;-67
2024/03/17 02:43:46;;;;;;;2.05;1.85;;;;;;;20.33;39.57;102343.25;5046102;28;20061;-68
2024/03/17 02:46:13;;;;;;;3.58;2.22;;;;;;;20.43;39.47;102357.28;5044240;28;20036;-67
2024/03/17 02:48:44;;;;;;;2.65;2.10;;;;;;;20.35;39.59;102354.50;5041056;28;20048;-67
2024/03/17 02:51:12;;;;;;;2.90;2.00;;;;;;;20.33;39.62;102356.47;5039478;28;20044;-68
2024/03/17 02:53:38;;;;;;;2.70;1.95;;;;;;;20.29;39.77;102348.94;5038609;28;20144;-68
2024/03/17 02:56:03;;;;;;;2.05;1.90;;;;;;;20.34;39.64;102352.84;5038475;28;20330;-68
2024/03/17 02:58:29;;;;;;;3.03;2.30;;;;;;;20.26;39.78;102349.25;5042437;28;20110;-68
2024/03/17 03:00:54;;;;;;;2.28;1.48;;;;;;;20.30;39.64;102358.59;5036632;28;20059;-67
2024/03/17 03:03:20;;;;;;;2.50;2.00;;;;;;;20.32;39.74;102353.97;5040127;28;20036;-67
2024/03/17 03:05:45;;;;;;;3.22;2.20;;;;;;;20.35;39.42;102362.44;5040224;28;20179;-67
2024/03/17 03:08:11;;;;;;;3.08;1.77;;;;;;;20.35;39.51;102351.03;5036507;28;20025;-67
2024/03/17 03:10:37;;;;;;;3.13;2.00;;;;;;;20.36;39.38;102358.00;5040183;28;20053;-67
2024/03/17 03:13:02;;;;;;;2.17;1.90;;;;;;;20.37;39.48;102352.56;5042345;28;20032;-67
2024/03/17 03:15:31;;;;;;;2.22;1.60;;;;;;;20.33;39.61;102353.00;5040564;28;20041;-65
2024/03/17 03:17:57;;;;;;;1.77;1.55;;;;;;;20.33;39.23;102353.84;5042316;28;20025;-66
2024/03/17 03:20:22;;;;;;;2.45;1.75;;;;;;;20.35;39.46;102356.31;5039238;28;20049;-67
2024/03/17 03:22:48;;;;;;;2.42;1.80;;;;;;;20.31;39.52;102355.78;5038416;28;20033;-67
2024/03/17 03:25:13;;;;;;;2.85;1.63;;;;;;;20.29;39.60;102352.47;5036874;28;20053;-67
2024/03/17 03:27:39;;;;;;;2.80;2.00;;;;;;;20.32;39.56;102351.34;5037010;28;20034;-67
2024/03/17 03:30:06;;;;;;;3.63;1.92;;;;;;;20.32;39.40;102348.69;5040215;28;20462;-66
2024/03/17 03:32:32;;;;;;;2.05;1.80;;;;;;;20.29;39.49;102357.75;5034702;28;20056;-66
2024/03/17 03:34:57;;;;;;;2.25;1.85;;;;;;;20.27;39.48;102356.22;5049357;28;20075;-66
2024/03/17 03:37:23;;;;;;;2.72;1.90;;;;;;;20.31;39.54;102353.16;5037756;28;20040;-65
2024/03/17 03:39:50;;;;;;;2.15;1.80;;;;;;;20.31;39.46;102355.78;5042461;28;20056;-67
2024/03/17 03:42:17;;;;;;;2.55;2.00;;;;;;;20.33;39.52;102351.19;5038867;28;20777;-67
2024/03/17 03:44:43;;;;;;;2.92;1.98;;;;;;;20.27;39.41;102343.81;5036523;28;20083;-68
2024/03/17 03:47:08;;;;;;;2.67;2.03;;;;;;;20.23;39.55;102351.22;5034792;28;20037;-67
2024/03/17 03:49:34;;;;;;;2.47;1.90;;;;;;;20.35;39.31;102351.03;5041525;28;20049;-67
2024/03/17 03:51:59;;;;;;;1.83;1.70;;;;;;;20.26;39.43;102350.09;5041469;28;20037;-67
2024/03/17 03:54:25;;;;;;;2.67;1.90;;;;;;;20.32;39.40;102348.69;5042911;28;20049;-67
2024/03/17 03:56:51;;;;;;;1.50;1.40;;;;;;;20.22;39.64;102351.34;5044714;28;20071;-67
2024/03/17 03:59:17;;;;;;;1.88;1.58;;;;;;;20.20;39.60;102350.69;5045961;28;20040;-67
2024/03/17 04:01:42;;;;;;;1.73;1.52;;;;;;;20.26;39.56;102339.50;5040182;28;20046;-67
2024/03/17 04:04:08;;;;;;;2.10;1.70;;;;;;;20.27;39.45;102335.88;5030918;28;20055;-67
2024/03/17 04:06:33;;;;;;;2.25;1.77;;;;;;;20.25;39.48;102329.91;5023614;28;20038;-68
2024/03/17 04:08:59;;;;;;;1.60;1.50;;;;;;;20.22;39.47;102340.78;5054254;28;20823;-66
2024/03/17 04:11:24;;;;;;;1.70;1.60;;;;;;;20.25;39.38;102337.00;5022228;28;20052;-68
2024/03/17 04:13:51;;;;;;;2.35;1.70;;;;;;;20.26;39.36;102336.03;5024949;28;20130;-67
2024/03/17 04:16:16;;;;;;;1.75;1.65;;;;;;;20.23;39.52;102335.34;5025392;28;20086;-67
2024/03/17 04:18:42;;;;;;;2.28;1.75;;;;;;;20.23;39.57;102334.50;5025824;28;20543;-67
2024/03/17 04:21:07;;;;;;;1.50;1.40;;;;;;;20.22;39.46;102327.56;5025214;28;20049;-68
2024/03/17 04:23:33;;;;;;;2.20;1.55;;;;;;;20.15;39.57;102326.50;5031964;28;20053;-68
2024/03/17 04:26:00;;;;;;;1.60;1.50;;;;;;;20.23;39.49;102332.69;5049899;28;20491;-67
2024/03/17 04:28:26;;;;;;;2.00;1.50;;;;;;;20.17;39.61;102341.22;5035167;28;20057;-67
2024/03/17 04:30:52;;;;;;;1.60;1.42;;;;;;;20.18;39.46;102334.97;5028563;28;20061;-67
2024/03/17 04:33:17;;;;;;;1.85;1.45;;;;;;;20.15;39.49;102339.72;5043000;28;20041;-66
2024/03/17 04:35:43;;;;;;;1.58;1.35;;;;;;;20.22;39.43;102336.31;5042057;28;20048;-67
2024/03/17 04:38:09;;;;;;;1.88;1.67;;;;;;;20.12;39.59;102330.25;5041152;28;20053;-67
2024/03/17 04:40:40;;;;;;;1.67;1.52;;;;;;;20.22;39.44;102328.38;5040605;28;20099;-68
2024/03/17 04:43:05;;;;;;;1.42;1.33;;;;;;;20.22;39.63;102338.97;5038433;28;20105;-67
2024/03/17 04:45:31;;;;;;;1.70;1.60;;;;;;;20.19;39.36;102333.13;5039988;28;20123;-67
2024/03/17 04:47:56;;;;;;;1.52;1.42;;;;;;;20.20;39.28;102337.44;5041614;28;20044;-67
2024/03/17 04:50:22;;;;;;;1.40;1.30;;;;;;;20.03;39.50;102312.59;5034873;28;20037;-67
2024/03/17 04:52:48;;;;;;;2.35;1.63;;;;;;;20.14;39.63;102316.88;5038703;28;20083;-67
2024/03/17 04:55:16;;;;;;;1.40;1.27;;;;;;;20.20;39.37;102322.41;5036697;28;20044;-66
2024/03/17 04:57:43;;;;;;;2.08;1.50;;;;;;;20.18;39.51;102318.25;5038020;28;21021;-67
2024/03/17 05:00:11;;;;;;;1.25;1.20;;;;;;;20.15;39.52;102319.38;5039954;28;20043;-67
2024/03/17 05:02:37;;;;;;;2.38;1.75;;;;;;;20.19;39.45;102311.97;5019772;28;20567;-66
2024/03/17 05:05:05;;;;;;;1.95;1.75;;;;;;;20.18;39.40;102313.78;5032500;28;20052;-67
2024/03/17 05:07:30;;;;;;;1.73;1.40;;;;;;;20.20;39.38;102311.84;5040357;28;20532;-67
2024/03/17 05:09:57;;;;;;;2.67;1.67;;;;;;;20.13;39.48;102305.47;5045794;28;20037;-67
2024/03/17 05:12:22;;;;;;;1.98;1.50;;;;;;;20.10;39.59;102313.69;5035964;28;20046;-67
2024/03/17 05:14:48;;;;;;;1.52;1.40;;;;;;;20.11;39.56;102317.19;5046305;28;20033;-67
2024/03/17 05:17:13;;;;;;;1.70;1.60;;;;;;;20.09;39.67;102311.19;5045647;28;20991;-67
2024/03/17 05:19:39;;;;;;;1.80;1.50;;;;;;;20.14;39.46;102314.25;5038415;28;20044;-67
2024/03/17 05:22:05;;;;;;;2.63;1.70;;;;;;;20.02;39.51;102297.72;5036730;28;20056;-67
2024/03/17 05:24:30;;;;;;;1.70;1.25;;;;;;;20.09;39.46;102295.31;5044480;28;20040;-67
2024/03/17 05:26:56;;;;;;;2.22;1.40;;;;;;;20.12;39.42;102302.97;5040431;28;20038;-67
2024/03/17 05:29:22;;;;;;;1.40;1.30;;;;;;;20.02;39.68;102304.81;5041906;28;20032;-67
2024/03/17 05:31:48;;;;;;;2.85;1.40;;;;;;;20.03;39.63;102306.47;5046801;28;20045;-67
2024/03/17 05:34:17;;;;;;;2.28;1.63;;;;;;;20.06;39.67;102296.44;5042845;28;20040;-67
2024/03/17 05:36:42;;;;;;;2.20;1.52;;;;;;;20.05;39.49;102283.38;5047996;28;20061;-66
2024/03/17 05:39:08;;;;;;;1.95;1.52;;;;;;;20.09;39.61;102292.66;5051584;28;20076;-67
2024/03/17 05:41:33;;;;;;;1.55;1.30;;;;;;;20.07;39.49;102306.03;5050751;28;20498;-67
2024/03/17 05:44:03;;;;;;;2.53;1.63;;;;;;;20.03;39.43;102303.84;5048573;28;20044;-67
2024/03/17 05:46:29;;;;;;;1.65;1.55;;;;;;;19.97;39.80;102289.41;5044130;28;20149;-67
2024/03/17 05:48:55;;;;;;;1.83;1.60;;;;;;;20.10;39.58;102303.09;5047393;28;20594;-67
2024/03/17 05:51:21;;;;;;;2.13;1.42;;;;;;;20.10;39.56;102305.75;5043939;28;20041;-67
2024/03/17 05:53:46;;;;;;;1.67;1.45;;;;;;;20.08;39.59;102307.69;5045197;28;20064;-67
2024/03/17 05:56:12;;;;;;;1.90;1.20;;;;;;;20.14;39.43;102309.78;5038556;28;20048;-65
2024/03/17 05:58:39;;;;;;;1.50;1.35;;;;;;;20.19;39.43;102314.63;5047526;28;20116;-66
2024/03/17 06:01:07;;;;;;;1.85;1.30;;;;;;;20.13;39.50;102310.75;5037873;28;20033;-66
2024/03/17 06:03:35;;;;;;;1.40;1.30;;;;;;;20.25;39.29;102310.56;5036273;28;20581;-66
2024/03/17 06:06:02;;;;;;;1.85;1.75;;;;;;;20.22;39.36;102311.69;5038215;28;20032;-67
2024/03/17 06:08:27;;;;;;;1.33;1.23;;;;;;;20.13;39.41;102302.81;5047144;28;20047;-67
2024/03/17 06:10:53;;;;;;;1.75;1.50;;;;;;;20.21;39.43;102313.50;5038148;28;20044;-66
2024/03/17 06:13:18;;;;;;;2.42;1.80;;;;;;;20.26;39.37;102309.56;5045272;28;20046;-66
2024/03/17 06:15:47;;;;;;;1.63;1.30;;;;;;;20.23;39.37;102308.88;5046342;28;20377;-66
2024/03/17 06:18:14;;;;;;;1.70;1.40;;;;;;;20.23;39.52;102308.06;5046300;28;20041;-67
2024/03/17 06:20:44;;;;;;;1.45;1.35;;;;;;;20.25;39.38;102305.25;5041473;28;20041;-66
2024/03/17 06:23:14;;;;;;;2.55;1.80;;;;;;;20.21;39.46;102305.56;5040673;28;20032;-66
2024/03/17 06:25:47;;;;;;;1.65;1.45;;;;;;;20.19;39.53;102302.25;5042935;28;20415;-66
2024/03/17 06:28:15;;;;;;;1.58;1.48;;;;;;;20.19;39.43;102302.25;5035354;28;20033;-67
2024/03/17 06:30:46;;;;;;;1.48;1.30;;;;;;;20.15;39.61;102300.03;5038745;28;20075;-66
2024/03/17 06:33:14;;;;;;;2.08;1.50;;;;;;;20.13;39.62;102297.53;5042507;28;20041;-66
2024/03/17 06:35:39;;;;;;;1.50;1.23;;;;;;;20.13;39.66;102309.94;5042287;28;20142;-67
2024/03/17 06:38:09;;;;;;;1.92;1.50;;;;;;;20.17;39.44;102306.00;5042319;28;20501;-65
2024/03/17 06:40:35;;;;;;;;;;;;;;;20.12;39.54;102306.47;5045014;28;20036;-65
2024/03/17 06:43:01;;;;;;;1.60;1.50;;;;;;;20.07;39.71;102315.78;5036098;28;19924;-67
2024/03/17 06:45:26;;;;;;;1.70;1.48;;;;;;;20.07;39.82;102321.91;5040949;28;20041;-66
2024/03/17 06:47:52;;;;;;;1.77;1.50;;;;;;;19.79;39.79;102278.75;5038341;28;20029;-66
2024/03/17 06:50:18;;;;;;;1.60;1.27;;;;;;;20.03;39.90;102325.81;5042815;28;20041;-67
2024/03/17 06:52:43;;;;;;;1.80;1.70;;;;;;;20.05;39.84;102325.69;5035491;28;20187;-67
2024/03/17 06:55:09;;;;;;;1.38;1.30;;;;;;;20.08;39.84;102325.38;5044038;28;20048;-67
2024/03/17 06:57:34;;;;;;;1.40;1.30;;;;;;;20.01;39.96;102319.00;5042521;28;20416;-66
2024/03/17 07:00:01;;;;;;;1.50;1.40;;;;;;;20.03;39.80;102319.69;5037406;28;20063;-66
2024/03/17 07:02:27;;;;;;;1.50;1.20;;;;;;;20.03;39.93;102319.69;5024936;28;20053;-67
2024/03/17 07:04:52;;;;;;;1.83;1.55;;;;;;;20.04;39.86;102314.25;5041941;28;20118;-68
2024/03/17 07:07:18;;;;;;;1.67;1.42;;;;;;;20.10;39.80;102326.06;5039716;28;20037;-67
2024/03/17 07:09:43;;;;;;;1.35;1.25;;;;;;;20.06;39.84;102319.41;5045624;28;20748;-68
2024/03/17 07:12:10;;;;;;;1.50;1.40;;;;;;;20.03;39.96;102317.88;5036648;28;20026;-67
2024/03/17 07:14:36;;;;;;;1.63;1.50;;;;;;;20.10;39.76;102318.13;5044628;28;20119;-66
2024/03/17 07:17:03;;;;;;;1.50;1.40;;;;;;;20.04;39.86;102318.72;5042755;28;20116;-67
2024/03/17 07:19:28;;;;;;;2.35;1.60;;;;;;;20.10;39.76;102323.41;5047774;28;20175;-68
2024/03/17 07:21:54;;;;;;;2.20;1.50;;;;;;;20.20;39.74;102325.06;5041316;28;20144;-67
2024/03/17 07:24:20;;;;;;;1.50;1.40;;;;;;;20.35;39.35;102329.88;5047960;28;20043;-67
2024/03/17 07:26:49;;;;;;;1.40;1.30;;;;;;;20.38;39.30;102329.56;5037268;28;20124;-67
2024/03/17 07:29:15;;;;;;;1.50;1.40;;;;;;;20.38;39.20;102324.28;5039533;28;20055;-67
2024/03/17 07:31:41;;;;;;;1.30;1.20;;;;;;;20.45;39.07;102334.16;5045435;28;20152;-68
2024/03/17 07:34:07;;;;;;;1.52;1.40;;;;;;;20.39;39.35;102329.44;5035398;28;20381;-68
2024/03/17 07:36:33;;;;;;;2.30;1.65;;;;;;;20.39;39.36;102332.06;5041487;28;20088;-67
2024/03/17 07:38:58;;;;;;;1.65;1.52;;;;;;;20.69;38.76;102328.31;5042235;28;20146;-69
2024/03/17 07:41:24;;;;;;;1.77;1.65;;;;;;;21.05;38.27;102333.63;5042127;28;20126;-67
2024/03/17 07:43:50;;;;;;;1.63;1.40;;;;;;;21.36;37.66;102323.50;5034944;28;20409;-66
2024/03/17 07:46:15;;;;;;;1.75;1.48;;;;;;;21.71;37.04;102314.63;5043467;28;20041;-66
2024/03/17 07:48:42;;;;;;;1.13;0.98;;;;;;;22.00;36.75;102315.13;5046795;28;20184;-66
2024/03/17 07:51:18;;;;;;;1.30;1.20;;;;;;;22.01;36.79;102310.66;5042019;28;20044;-67
2024/03/17 07:53:45;;;;;;;1.42;1.20;;;;;;;21.84;36.79;102295.66;5042607;28;20733;-66
2024/03/17 07:56:12;;;;;;;1.80;1.50;;;;;;;21.73;37.42;102303.88;5045200;28;20054;-66
2024/03/17 07:58:41;;;;;;;1.80;1.25;;;;;;;21.67;37.71;102300.84;5046619;28;20047;-67
2024/03/17 08:01:15;;;;;;;1.50;1.40;;;;;;;21.56;37.65;102306.44;5049816;28;20143;-67
2024/03/17 08:03:44;;;;;;;1.83;1.35;;;;;;;21.49;37.96;102300.06;5043062;28;20033;-67
2024/03/17 08:06:10;;;;;;;1.90;1.45;;;;;;;21.38;38.01;102301.19;5046771;28;20119;-67
2024/03/17 08:08:36;;;;;;;2.08;1.50;;;;;;;21.36;38.09;102303.16;5038020;28;20097;-67
2024/03/17 08:11:03;;;;;;;2.40;1.52;;;;;;;21.33;38.02;102303.44;5034290;28;20045;-67
2024/03/17 08:13:33;;;;;;;1.73;1.30;;;;;;;21.26;38.58;102307.69;5046389;28;20071;-66
2024/03/17 08:16:03;;;;;;;1.30;1.20;;;;;;;21.17;38.52;102300.63;5037587;28;20095;-66
2024/03/17 08:18:29;;;;;;;2.08;1.30;;;;;;;21.08;38.71;102307.69;5036850;28;20044;-67
2024/03/17 08:20:54;;;;;;;1.50;1.33;;;;;;;21.09;38.55;102305.88;5041122;28;20040;-66
2024/03/17 08:23:21;;;;;;;1.80;1.60;;;;;;;21.01;38.82;102289.91;5037466;28;20045;-67
2024/03/17 08:25:53;;;;;;;2.33;1.73;;;;;;;20.96;38.98;102292.16;5041156;28;20155;-67
2024/03/17 08:28:20;;;;;;;1.73;1.60;;;;;;;21.01;38.75;102300.50;5036032;28;20606;-68
2024/03/17 08:30:59;;;;;;;1.83;1.38;;;;;;;21.01;38.77;102309.28;5034268;28;20049;-68
2024/03/17 08:33:26;;;;;;;1.83;1.37;;;;;;;20.98;38.92;102314.03;5039255;28;20136;-67
2024/03/17 08:35:55;;;;;;;1.75;1.48;;;;;;;20.96;38.84;102313.34;5040227;28;20483;-68
2024/03/17 08:38:23;;;;;;;1.42;1.33;;;;;;;20.93;38.73;102327.72;5046240;28;20040;-67
2024/03/17 08:40:49;;;;;;;2.05;1.30;;;;;;;20.92;38.56;102328.72;5043979;28;20048;-68
2024/03/17 08:43:15;;;;;;;2.20;1.70;;;;;;;20.94;38.31;102321.44;5037628;28;20253;-72
2024/03/17 08:45:40;;;;;;;2.90;1.40;;;;;;;20.86;37.98;102326.69;5041241;28;20052;-66
2024/03/17 08:48:06;;;;;;;1.60;1.20;;;;;;;20.79;38.34;102318.47;5038514;28;20404;-67
2024/03/17 08:50:34;;;;;;;2.88;1.40;;;;;;;20.83;38.67;102324.34;5040080;28;20365;-67
2024/03/17 08:52:59;;;;;;;2.15;1.70;;;;;;;20.81;38.63;102316.50;5042871;28;20371;-67
2024/03/17 08:55:25;;;;;;;1.45;1.35;;;;;;;20.83;38.85;102318.22;5037136;28;20036;-67
2024/03/17 08:57:50;;;;;;;2.25;1.38;;;;;;;20.81;38.57;102310.38;5041600;28;21348;-67
2024/03/17 09:00:16;;;;;;;2.58;1.73;;;;;;;20.74;39.05;102310.16;5043139;28;20045;-67
2024/03/17 09:02:42;;;;;;;2.72;1.63;;;;;;;20.75;38.88;102313.63;5043660;28;20060;-67
2024/03/17 09:05:08;;;;;;;1.95;1.60;;;;;;;20.69;39.10;102316.91;5040251;28;20058;-67
2024/03/17 09:07:33;;;;;;;2.35;1.50;;;;;;;20.71;38.96;102318.41;5048856;28;20028;-67
2024/03/17 09:09:59;;;;;;;2.30;1.15;;;;;;;20.78;38.78;102318.63;5040991;28;20052;-67
2024/03/17 09:12:28;;;;;;;1.40;1.17;;;;;;;20.74;38.83;102317.28;5046079;28;20044;-66
2024/03/17 09:14:54;;;;;;;1.50;1.40;;;;;;;20.72;38.98;102317.44;5045846;28;20569;-67
2024/03/17 09:17:20;;;;;;;1.45;1.25;;;;;;;20.75;38.84;102305.69;5039465;28;20041;-66
2024/03/17 09:19:47;;;;;;;1.98;1.55;;;;;;;20.73;38.96;102305.84;5043175;28;20131;-66
2024/03/17 09:22:13;;;;;;;1.90;1.20;;;;;;;20.77;38.79;102311.69;5039004;28;21321;-68
2024/03/17 09:24:39;;;;;;;3.85;1.35;;;;;;;20.69;38.96;102303.66;5045110;28;20042;-68
2024/03/17 09:27:05;;;;;;;1.65;1.42;;;;;;;20.76;38.88;102310.84;5037891;28;20122;-69
2024/03/17 09:29:31;;;;;;;1.60;1.20;;;;;;;20.80;38.88;102306.06;5039783;28;20068;-69
2024/03/17 09:31:56;;;;;;;1.55;1.00;;;;;;;20.77;38.88;102299.28;5037515;28;20111;-68
2024/03/17 09:34:22;;;;;;;1.50;1.40;;;;;;;20.79;38.94;102299.94;5036696;28;20045;-68
2024/03/17 09:36:47;;;;;;;2.20;1.40;;;;;;;20.82;38.85;102301.47;5041646;28;20072;-68
2024/03/17 09:39:14;;;;;;;1.58;1.08;;;;;;;20.72;38.96;102288.31;5041765;28;20033;-68
2024/03/17 09:41:40;;;;;;;1.63;1.08;;;;;;;20.77;39.01;102307.22;5042987;28;20071;-67
2024/03/17 09:44:09;;;;;;;3.08;1.65;;;;;;;20.74;39.14;102312.81;5040945;28;20033;-68
2024/03/17 09:46:36;;;;;;;2.30;1.30;;;;;;;20.77;39.00;102314.31;5038529;28;20040;-68
2024/03/17 09:49:01;;;;;;;1.25;1.10;;;;;;;20.74;38.96;102317.28;5041907;28;20489;-69
2024/03/17 09:51:27;;;;;;;1.73;1.45;;;;;;;20.69;39.06;102303.66;5041283;28;20052;-67
2024/03/17 09:53:53;;;;;;;2.35;1.60;;;;;;;20.75;39.15;102300.41;5036647;28;20102;-68
2024/03/17 09:56:21;;;;;;;1.67;1.30;;;;;;;20.80;39.05;102308.72;5033057;28;20135;-68
2024/03/17 09:58:49;;;;;;;1.58;1.33;;;;;;;20.74;38.98;102311.97;5039832;28;20366;-68
2024/03/17 10:01:15;;;;;;;3.92;1.75;;;;;;;20.75;38.93;102303.06;5035959;28;20404;-66
2024/03/17 10:03:49;;;;;;;2.28;1.52;;;;;;;21.10;38.25;102296.94;5041726;28;20041;-68
2024/03/17 10:06:16;;;;;;;2.08;1.20;;;;;;;21.27;38.30;102295.28;5037795;28;20045;-69
2024/03/17 10:08:46;;;;;;;2.97;1.45;;;;;;;21.35;38.27;102296.16;5037935;28;20044;-65
2024/03/17 10:11:13;;;;;;;4.03;1.55;;;;;;;20.98;38.29;102296.31;5036387;28;20053;-68
2024/03/17 10:13:40;;;;;;;2.92;1.42;;;;;;;21.10;38.57;102296.94;5039147;28;20036;-72
2024/03/17 10:16:05;;;;;;;3.67;1.60;;;;;;;21.31;38.66;102300.09;5039964;28;22296;-69
2024/03/17 10:18:31;;;;;;;3.25;1.40;;;;;;;21.37;38.49;102294.22;5038362;28;20041;-68
2024/03/17 10:20:58;;;;;;;1.27;1.00;;;;;;;21.36;38.49;102283.75;5033719;28;20355;-68
2024/03/17 10:23:24;;;;;;;2.75;1.42;;;;;;;21.35;38.69;102296.16;5038970;28;20079;-69
2024/03/17 10:25:50;;;;;;;1.48;1.30;;;;;;;21.33;38.88;102282.22;5039065;28;20064;-68
2024/03/17 10:28:17;;;;;;;2.25;1.45;;;;;;;21.34;39.12;102288.38;5033245;28;20045;-67
2024/03/17 10:31:00;;;;;;;1.08;0.95;;;;;;;21.11;39.71;102266.81;5043635;28;20040;-66
2024/03/17 10:33:27;;;;;;;1.55;1.30;;;;;;;21.06;40.01;102280.50;5032367;28;20045;-68
2024/03/17 10:36:00;;;;;;;3.55;1.75;;;;;;;20.86;38.64;102278.19;5042203;28;20140;-69
2024/03/17 10:38:29;;;;;;;3.25;1.67;;;;;;;20.53;38.94;102269.91;5038006;28;20041;-69
2024/03/17 10:40:55;;;;;;;4.75;2.45;;;;;;;20.55;39.14;102270.59;5040867;28;21255;-68
2024/03/17 10:43:24;;;;;;;2.53;1.80;;;;;;;20.94;38.40;102278.25;5040032;28;20535;-66
2024/03/17 10:45:54;;;;;;;2.00;1.63;;;;;;;20.79;38.33;102272.63;5036860;28;20139;-67
2024/03/17 10:48:23;;;;;;;7.07;2.15;;;;;;;21.00;38.61;102277.63;5042703;28;20032;-69
2024/03/17 10:50:50;;;;;;;;;;;;;;;21.40;38.29;102278.00;5039873;28;20037;-69
2024/03/17 10:53:25;;;;;;;6.55;2.55;;;;;;;21.55;37.92;102235.84;5037616;28;19920;-62
2024/03/17 10:56:05;;;;;;;5.55;2.50;;;;;;;21.88;37.99;102271.31;5039566;28;20040;-65
2024/03/17 10:58:36;;;;;;;9.52;4.25;;;;;;;21.90;38.13;102261.41;5037898;28;20045;-67
2024/03/17 11:01:07;;;;;;;18.83;6.20;;;;;;;22.16;37.76;102264.00;5044292;28;20355;-69
2024/03/17 11:03:33;;;;;;;7.65;2.92;;;;;;;21.94;36.84;102256.59;5038478;28;20110;-69
2024/03/17 11:06:05;;;;;;;10.43;3.60;;;;;;;21.83;36.93;102260.34;5037579;28;20120;-69
2024/03/17 11:08:34;;;;;;;7.28;3.00;;;;;;;21.75;37.13;102257.66;5038020;28;20336;-69
2024/03/17 11:11:00;;;;;;;6.70;2.80;;;;;;;21.64;37.56;102263.22;5040011;28;20036;-69
2024/03/17 11:13:29;;;;;;;3.20;2.13;;;;;;;21.57;37.69;102257.72;5041530;28;20035;-71
2024/03/17 11:16:04;;;;;;;36.50;3.90;;;;;;;21.78;37.45;102257.34;5025080;28;20690;-68
2024/03/17 11:18:39;;;;;;;7.05;2.58;;;;;;;22.22;36.91;102260.69;5014740;28;20059;-66
2024/03/17 11:21:20;;;;;;;4.90;2.33;;;;;;;22.34;37.05;102247.13;5035561;28;20496;-67
2024/03/17 11:24:01;;;;;;;6.40;2.55;;;;;;;22.45;36.90;102237.06;5042608;28;20036;-66
2024/03/17 11:26:28;;;;;;;4.38;2.20;;;;;;;22.53;36.82;102244.19;5036740;28;20040;-66
2024/03/17 11:28:55;;;;;;;4.60;2.50;;;;;;;22.51;37.10;102239.06;5036779;28;20048;-68